Clio, Michigan
Current Conditions -  °F | °C
As of 8:32 AM on Tuesday 21 Oct 2014 (Local Time) from KFNT Reporting Station
Light Rain Light Rain  
Wind Chill: 41°   Ceiling: 1500
Heat Index: 47°   Visibility: 5mi
Dew Point: 43°   Wind: 15mph
Humidity: 86%   Direction: 10°N
Pressure: 30.01"   Gusts: NA
Location:  43.18°N, 83.73°W
Report Text: KFNT 211232Z 01013KT 5SM -RA BR SCT007 OVC015 08/06 A3001 RMK AO2 P0001 T00830061
Loading
Personal Weather Stations






























Interactive Weather Map
Tropical Storm Tracking
New forecast layout! Learn more

10-Day Weather Forecast

Advertisements
Track Severe Weather on mobile